sensor_id;sensor_type;location;lat;lon;timestamp;P1;durP1;ratioP1;P2;durP2;ratioP2
58982;SDS011;44771;49.982;8.560;2022-12-24T00:01:49;22.13;;;10.07;;
58982;SDS011;44771;49.982;8.560;2022-12-24T00:06:51;18.15;;;10.82;;
58982;SDS011;44771;49.982;8.560;2022-12-24T00:11:53;31.20;;;11.07;;
58982;SDS011;44771;49.982;8.560;2022-12-24T00:16:56;15.52;;;10.90;;
58982;SDS011;44771;49.982;8.560;2022-12-24T00:21:58;18.00;;;10.93;;
58982;SDS011;44771;49.982;8.560;2022-12-24T00:26:59;20.50;;;12.80;;
58982;SDS011;44771;49.982;8.560;2022-12-24T00:32:03;16.48;;;10.55;;
58982;SDS011;44771;49.982;8.560;2022-12-24T00:37:05;18.95;;;12.13;;
58982;SDS011;44771;49.982;8.560;2022-12-24T00:42:07;16.05;;;11.15;;
58982;SDS011;44771;49.982;8.560;2022-12-24T00:47:10;17.35;;;11.43;;
58982;SDS011;44771;49.982;8.560;2022-12-24T00:52:12;21.62;;;11.70;;
58982;SDS011;44771;49.982;8.560;2022-12-24T00:57:14;14.98;;;11.70;;
58982;SDS011;44771;49.982;8.560;2022-12-24T01:02:17;13.65;;;10.60;;
58982;SDS011;44771;49.982;8.560;2022-12-24T01:07:19;22.33;;;11.32;;
58982;SDS011;44771;49.982;8.560;2022-12-24T01:12:21;16.85;;;11.80;;
58982;SDS011;44771;49.982;8.560;2022-12-24T01:17:24;12.73;;;10.93;;
58982;SDS011;44771;49.982;8.560;2022-12-24T01:22:26;18.30;;;12.73;;
58982;SDS011;44771;49.982;8.560;2022-12-24T01:27:28;16.83;;;11.30;;
58982;SDS011;44771;49.982;8.560;2022-12-24T01:32:31;15.65;;;11.65;;
58982;SDS011;44771;49.982;8.560;2022-12-24T01:37:33;18.15;;;12.57;;
58982;SDS011;44771;49.982;8.560;2022-12-24T01:42:35;22.85;;;12.07;;
58982;SDS011;44771;49.982;8.560;2022-12-24T01:47:40;15.98;;;11.32;;
58982;SDS011;44771;49.982;8.560;2022-12-24T01:52:42;20.20;;;11.63;;
58982;SDS011;44771;49.982;8.560;2022-12-24T01:57:45;17.77;;;11.20;;
58982;SDS011;44771;49.982;8.560;2022-12-24T02:07:53;17.48;;;11.70;;
58982;SDS011;44771;49.982;8.560;2022-12-24T02:12:55;18.20;;;13.02;;
58982;SDS011;44771;49.982;8.560;2022-12-24T02:18:03;20.75;;;11.60;;
58982;SDS011;44771;49.982;8.560;2022-12-24T02:28:55;17.05;;;11.10;;
58982;SDS011;44771;49.982;8.560;2022-12-24T02:34:12;15.88;;;11.00;;
58982;SDS011;44771;49.982;8.560;2022-12-24T02:39:19;22.35;;;12.37;;
58982;SDS011;44771;49.982;8.560;2022-12-24T02:44:28;20.58;;;11.40;;
58982;SDS011;44771;49.982;8.560;2022-12-24T02:49:33;22.35;;;11.98;;
58982;SDS011;44771;49.982;8.560;2022-12-24T02:54:35;17.02;;;11.77;;
58982;SDS011;44771;49.982;8.560;2022-12-24T02:59:42;18.10;;;11.60;;
58982;SDS011;44771;49.982;8.560;2022-12-24T03:05:09;19.10;;;12.05;;
58982;SDS011;44771;49.982;8.560;2022-12-24T03:10:19;21.62;;;12.35;;
58982;SDS011;44771;49.982;8.560;2022-12-24T03:15:27;19.80;;;11.65;;
58982;SDS011;44771;49.982;8.560;2022-12-24T03:20:33;23.67;;;11.48;;
58982;SDS011;44771;49.982;8.560;2022-12-24T03:25:37;13.30;;;11.48;;
58982;SDS011;44771;49.982;8.560;2022-12-24T03:30:41;17.83;;;10.85;;
58982;SDS011;44771;49.982;8.560;2022-12-24T03:35:45;25.58;;;11.65;;
58982;SDS011;44771;49.982;8.560;2022-12-24T03:40:47;20.95;;;10.77;;
58982;SDS011;44771;49.982;8.560;2022-12-24T03:45:49;16.65;;;11.20;;
58982;SDS011;44771;49.982;8.560;2022-12-24T03:50:52;18.17;;;11.23;;
58982;SDS011;44771;49.982;8.560;2022-12-24T03:55:54;20.62;;;11.00;;
58982;SDS011;44771;49.982;8.560;2022-12-24T04:00:56;19.90;;;13.05;;
58982;SDS011;44771;49.982;8.560;2022-12-24T04:06:03;20.23;;;11.90;;
58982;SDS011;44771;49.982;8.560;2022-12-24T04:11:07;20.45;;;11.98;;
58982;SDS011;44771;49.982;8.560;2022-12-24T04:16:12;17.62;;;11.70;;
58982;SDS011;44771;49.982;8.560;2022-12-24T04:21:16;23.77;;;11.77;;
58982;SDS011;44771;49.982;8.560;2022-12-24T04:26:18;22.77;;;12.63;;
58982;SDS011;44771;49.982;8.560;2022-12-24T04:31:20;12.82;;;11.38;;
58982;SDS011;44771;49.982;8.560;2022-12-24T04:36:23;25.55;;;12.77;;
58982;SDS011;44771;49.982;8.560;2022-12-24T04:41:25;18.23;;;11.68;;
58982;SDS011;44771;49.982;8.560;2022-12-24T04:46:27;19.02;;;12.23;;
58982;SDS011;44771;49.982;8.560;2022-12-24T04:51:31;17.27;;;11.18;;
58982;SDS011;44771;49.982;8.560;2022-12-24T04:56:33;18.48;;;11.88;;
58982;SDS011;44771;49.982;8.560;2022-12-24T05:01:35;18.80;;;12.30;;
58982;SDS011;44771;49.982;8.560;2022-12-24T05:06:38;22.15;;;11.85;;
58982;SDS011;44771;49.982;8.560;2022-12-24T05:11:40;13.68;;;11.40;;
58982;SDS011;44771;49.982;8.560;2022-12-24T05:16:42;20.75;;;11.25;;
58982;SDS011;44771;49.982;8.560;2022-12-24T05:21:45;26.95;;;11.30;;
58982;SDS011;44771;49.982;8.560;2022-12-24T05:26:47;15.60;;;11.27;;
58982;SDS011;44771;49.982;8.560;2022-12-24T05:31:50;16.30;;;11.52;;
58982;SDS011;44771;49.982;8.560;2022-12-24T05:36:54;18.33;;;10.90;;
58982;SDS011;44771;49.982;8.560;2022-12-24T05:41:55;22.52;;;11.25;;
58982;SDS011;44771;49.982;8.560;2022-12-24T05:46:57;16.40;;;11.10;;
58982;SDS011;44771;49.982;8.560;2022-12-24T05:52:00;12.93;;;10.88;;
58982;SDS011;44771;49.982;8.560;2022-12-24T05:57:02;20.85;;;10.95;;
58982;SDS011;44771;49.982;8.560;2022-12-24T06:02:04;19.00;;;11.35;;
58982;SDS011;44771;49.982;8.560;2022-12-24T06:07:07;21.98;;;10.95;;
58982;SDS011;44771;49.982;8.560;2022-12-24T06:12:09;18.27;;;11.00;;
58982;SDS011;44771;49.982;8.560;2022-12-24T06:17:11;28.00;;;12.77;;
58982;SDS011;44771;49.982;8.560;2022-12-24T06:22:14;25.30;;;11.90;;
58982;SDS011;44771;49.982;8.560;2022-12-24T06:27:16;21.58;;;12.68;;
58982;SDS011;44771;49.982;8.560;2022-12-24T06:32:18;20.00;;;12.30;;
58982;SDS011;44771;49.982;8.560;2022-12-24T06:37:22;24.60;;;11.48;;
58982;SDS011;44771;49.982;8.560;2022-12-24T06:42:23;27.70;;;11.80;;
58982;SDS011;44771;49.982;8.560;2022-12-24T06:47:26;19.83;;;11.98;;
58982;SDS011;44771;49.982;8.560;2022-12-24T06:52:29;22.40;;;11.77;;
58982;SDS011;44771;49.982;8.560;2022-12-24T06:57:31;23.27;;;12.15;;
58982;SDS011;44771;49.982;8.560;2022-12-24T07:02:32;25.00;;;11.45;;
58982;SDS011;44771;49.982;8.560;2022-12-24T07:07:36;26.17;;;11.38;;
58982;SDS011;44771;49.982;8.560;2022-12-24T07:12:38;19.33;;;11.90;;
58982;SDS011;44771;49.982;8.560;2022-12-24T07:17:40;28.33;;;12.57;;
58982;SDS011;44771;49.982;8.560;2022-12-24T07:22:43;24.17;;;11.63;;
58982;SDS011;44771;49.982;8.560;2022-12-24T07:27:45;35.80;;;11.82;;
58982;SDS011;44771;49.982;8.560;2022-12-24T07:32:47;20.08;;;12.00;;
58982;SDS011;44771;49.982;8.560;2022-12-24T07:37:50;29.45;;;13.05;;
58982;SDS011;44771;49.982;8.560;2022-12-24T07:42:54;23.48;;;11.90;;
58982;SDS011;44771;49.982;8.560;2022-12-24T07:47:55;27.77;;;13.35;;
58982;SDS011;44771;49.982;8.560;2022-12-24T07:52:59;30.17;;;12.02;;
58982;SDS011;44771;49.982;8.560;2022-12-24T07:58:00;25.67;;;12.00;;
58982;SDS011;44771;49.982;8.560;2022-12-24T08:03:02;19.37;;;11.60;;
58982;SDS011;44771;49.982;8.560;2022-12-24T08:08:06;17.75;;;12.10;;
58982;SDS011;44771;49.982;8.560;2022-12-24T08:13:07;25.17;;;12.68;;
58982;SDS011;44771;49.982;8.560;2022-12-24T08:18:09;32.65;;;12.48;;
58982;SDS011;44771;49.982;8.560;2022-12-24T08:23:13;24.98;;;12.43;;
58982;SDS011;44771;49.982;8.560;2022-12-24T08:28:15;21.40;;;13.85;;
58982;SDS011;44771;49.982;8.560;2022-12-24T08:33:20;29.55;;;13.43;;
58982;SDS011;44771;49.982;8.560;2022-12-24T08:38:23;31.95;;;12.65;;
58982;SDS011;44771;49.982;8.560;2022-12-24T08:43:25;29.48;;;12.20;;
58982;SDS011;44771;49.982;8.560;2022-12-24T08:48:27;35.70;;;13.15;;
58982;SDS011;44771;49.982;8.560;2022-12-24T08:53:30;31.70;;;12.80;;
58982;SDS011;44771;49.982;8.560;2022-12-24T08:58:32;23.55;;;11.55;;
58982;SDS011;44771;49.982;8.560;2022-12-24T09:03:33;33.25;;;11.75;;
58982;SDS011;44771;49.982;8.560;2022-12-24T09:08:37;33.92;;;11.50;;
58982;SDS011;44771;49.982;8.560;2022-12-24T09:13:39;29.15;;;11.75;;
58982;SDS011;44771;49.982;8.560;2022-12-24T09:18:42;33.45;;;11.75;;
58982;SDS011;44771;49.982;8.560;2022-12-24T09:23:45;32.80;;;11.20;;
58982;SDS011;44771;49.982;8.560;2022-12-24T09:28:49;31.75;;;12.02;;
58982;SDS011;44771;49.982;8.560;2022-12-24T09:33:51;30.77;;;11.10;;
58982;SDS011;44771;49.982;8.560;2022-12-24T09:44:41;27.37;;;10.93;;
58982;SDS011;44771;49.982;8.560;2022-12-24T09:49:46;28.48;;;10.82;;
58982;SDS011;44771;49.982;8.560;2022-12-24T09:54:55;33.03;;;10.50;;
58982;SDS011;44771;49.982;8.560;2022-12-24T10:00:04;31.42;;;10.43;;
58982;SDS011;44771;49.982;8.560;2022-12-24T10:05:16;33.67;;;11.12;;
58982;SDS011;44771;49.982;8.560;2022-12-24T10:27:24;36.25;;;11.90;;
58982;SDS011;44771;49.982;8.560;2022-12-24T10:32:33;29.37;;;11.23;;
58982;SDS011;44771;49.982;8.560;2022-12-24T10:37:36;30.58;;;11.23;;
58982;SDS011;44771;49.982;8.560;2022-12-24T10:42:38;18.05;;;10.15;;
58982;SDS011;44771;49.982;8.560;2022-12-24T10:47:53;21.62;;;9.93;;
58982;SDS011;44771;49.982;8.560;2022-12-24T10:53:02;25.20;;;11.25;;
58982;SDS011;44771;49.982;8.560;2022-12-24T11:03:27;18.62;;;10.20;;
58982;SDS011;44771;49.982;8.560;2022-12-24T11:08:42;21.62;;;10.95;;
58982;SDS011;44771;49.982;8.560;2022-12-24T11:13:45;33.83;;;12.27;;
58982;SDS011;44771;49.982;8.560;2022-12-24T11:18:57;22.83;;;11.12;;
58982;SDS011;44771;49.982;8.560;2022-12-24T11:24:02;34.75;;;11.75;;
58982;SDS011;44771;49.982;8.560;2022-12-24T11:29:13;26.45;;;11.12;;
58982;SDS011;44771;49.982;8.560;2022-12-24T11:34:27;28.98;;;12.18;;
58982;SDS011;44771;49.982;8.560;2022-12-24T11:39:30;40.75;;;12.20;;
58982;SDS011;44771;49.982;8.560;2022-12-24T11:44:53;26.52;;;12.00;;
58982;SDS011;44771;49.982;8.560;2022-12-24T11:55:25;23.55;;;10.88;;
58982;SDS011;44771;49.982;8.560;2022-12-24T12:01:01;37.55;;;15.13;;
58982;SDS011;44771;49.982;8.560;2022-12-24T12:06:30;18.35;;;12.45;;
58982;SDS011;44771;49.982;8.560;2022-12-24T12:11:38;31.17;;;13.98;;
58982;SDS011;44771;49.982;8.560;2022-12-24T12:16:49;28.12;;;12.13;;
58982;SDS011;44771;49.982;8.560;2022-12-24T12:22:18;31.35;;;11.95;;
58982;SDS011;44771;49.982;8.560;2022-12-24T12:27:26;25.45;;;13.48;;
58982;SDS011;44771;49.982;8.560;2022-12-24T12:32:35;26.55;;;13.30;;
58982;SDS011;44771;49.982;8.560;2022-12-24T12:37:45;26.02;;;14.18;;
58982;SDS011;44771;49.982;8.560;2022-12-24T12:48:26;30.42;;;13.95;;
58982;SDS011;44771;49.982;8.560;2022-12-24T12:53:52;30.25;;;12.43;;
58982;SDS011;44771;49.982;8.560;2022-12-24T12:59:13;22.02;;;12.07;;
58982;SDS011;44771;49.982;8.560;2022-12-24T13:04:23;18.50;;;12.37;;
58982;SDS011;44771;49.982;8.560;2022-12-24T13:16:01;30.98;;;12.80;;
58982;SDS011;44771;49.982;8.560;2022-12-24T13:21:43;24.77;;;14.27;;
58982;SDS011;44771;49.982;8.560;2022-12-24T13:38:38;16.90;;;12.48;;
58982;SDS011;44771;49.982;8.560;2022-12-24T13:49:40;25.15;;;13.10;;
58982;SDS011;44771;49.982;8.560;2022-12-24T13:54:45;26.75;;;15.65;;
58982;SDS011;44771;49.982;8.560;2022-12-24T14:00:01;24.05;;;13.02;;
58982;SDS011;44771;49.982;8.560;2022-12-24T14:05:14;28.25;;;13.30;;
58982;SDS011;44771;49.982;8.560;2022-12-24T14:10:23;34.75;;;12.98;;
58982;SDS011;44771;49.982;8.560;2022-12-24T14:21:13;32.55;;;13.20;;
58982;SDS011;44771;49.982;8.560;2022-12-24T14:26:19;28.00;;;13.15;;
58982;SDS011;44771;49.982;8.560;2022-12-24T14:31:32;26.83;;;12.82;;
58982;SDS011;44771;49.982;8.560;2022-12-24T14:36:35;22.67;;;12.60;;
58982;SDS011;44771;49.982;8.560;2022-12-24T14:41:41;25.12;;;12.68;;
58982;SDS011;44771;49.982;8.560;2022-12-24T14:46:52;25.50;;;13.07;;
58982;SDS011;44771;49.982;8.560;2022-12-24T14:51:58;23.17;;;12.63;;
58982;SDS011;44771;49.982;8.560;2022-12-24T14:57:18;29.75;;;12.27;;
58982;SDS011;44771;49.982;8.560;2022-12-24T15:02:37;27.73;;;12.48;;
58982;SDS011;44771;49.982;8.560;2022-12-24T15:07:46;27.17;;;12.43;;
58982;SDS011;44771;49.982;8.560;2022-12-24T15:12:54;29.35;;;13.35;;
58982;SDS011;44771;49.982;8.560;2022-12-24T15:17:58;30.45;;;12.37;;
58982;SDS011;44771;49.982;8.560;2022-12-24T15:23:02;32.58;;;12.57;;
58982;SDS011;44771;49.982;8.560;2022-12-24T15:28:13;17.27;;;12.15;;
58982;SDS011;44771;49.982;8.560;2022-12-24T15:33:16;25.23;;;12.10;;
58982;SDS011;44771;49.982;8.560;2022-12-24T15:38:28;24.87;;;13.48;;
58982;SDS011;44771;49.982;8.560;2022-12-24T15:43:31;20.27;;;12.23;;
58982;SDS011;44771;49.982;8.560;2022-12-24T15:48:33;24.37;;;12.32;;
58982;SDS011;44771;49.982;8.560;2022-12-24T15:53:41;13.85;;;11.57;;
58982;SDS011;44771;49.982;8.560;2022-12-24T15:58:44;25.85;;;12.88;;
58982;SDS011;44771;49.982;8.560;2022-12-24T16:03:53;34.50;;;14.48;;
58982;SDS011;44771;49.982;8.560;2022-12-24T16:08:59;30.08;;;13.27;;
58982;SDS011;44771;49.982;8.560;2022-12-24T16:14:03;21.02;;;13.62;;
58982;SDS011;44771;49.982;8.560;2022-12-24T16:19:14;25.55;;;12.65;;
58982;SDS011;44771;49.982;8.560;2022-12-24T16:24:20;22.95;;;14.32;;
58982;SDS011;44771;49.982;8.560;2022-12-24T16:29:24;24.92;;;14.00;;
58982;SDS011;44771;49.982;8.560;2022-12-24T16:34:27;19.65;;;12.73;;
58982;SDS011;44771;49.982;8.560;2022-12-24T16:39:32;20.08;;;14.05;;
58982;SDS011;44771;49.982;8.560;2022-12-24T16:44:35;24.30;;;13.70;;
58982;SDS011;44771;49.982;8.560;2022-12-24T16:49:37;22.17;;;13.05;;
58982;SDS011;44771;49.982;8.560;2022-12-24T16:54:40;27.45;;;12.55;;
58982;SDS011;44771;49.982;8.560;2022-12-24T16:59:41;22.13;;;12.73;;
58982;SDS011;44771;49.982;8.560;2022-12-24T17:04:43;28.08;;;12.40;;
58982;SDS011;44771;49.982;8.560;2022-12-24T17:09:47;15.55;;;12.23;;
58982;SDS011;44771;49.982;8.560;2022-12-24T17:14:49;17.87;;;13.05;;
58982;SDS011;44771;49.982;8.560;2022-12-24T17:19:50;25.25;;;14.40;;
58982;SDS011;44771;49.982;8.560;2022-12-24T17:24:53;14.15;;;12.23;;
58982;SDS011;44771;49.982;8.560;2022-12-24T17:29:55;18.30;;;11.60;;
58982;SDS011;44771;49.982;8.560;2022-12-24T17:34:57;19.75;;;12.90;;
58982;SDS011;44771;49.982;8.560;2022-12-24T17:40:00;15.80;;;11.77;;
58982;SDS011;44771;49.982;8.560;2022-12-24T17:45:02;22.23;;;11.73;;
58982;SDS011;44771;49.982;8.560;2022-12-24T17:50:10;26.75;;;14.30;;
58982;SDS011;44771;49.982;8.560;2022-12-24T17:55:21;24.70;;;13.65;;
58982;SDS011;44771;49.982;8.560;2022-12-24T18:00:23;23.00;;;12.23;;
58982;SDS011;44771;49.982;8.560;2022-12-24T18:05:33;17.40;;;12.10;;
58982;SDS011;44771;49.982;8.560;2022-12-24T18:10:36;29.30;;;13.27;;
58982;SDS011;44771;49.982;8.560;2022-12-24T18:15:38;28.17;;;14.57;;
58982;SDS011;44771;49.982;8.560;2022-12-24T18:20:40;22.67;;;12.90;;
58982;SDS011;44771;49.982;8.560;2022-12-24T18:25:48;29.08;;;12.65;;
58982;SDS011;44771;49.982;8.560;2022-12-24T18:30:57;21.15;;;13.52;;
58982;SDS011;44771;49.982;8.560;2022-12-24T18:36:00;27.37;;;12.70;;
58982;SDS011;44771;49.982;8.560;2022-12-24T18:41:05;28.98;;;12.23;;
58982;SDS011;44771;49.982;8.560;2022-12-24T18:46:09;34.30;;;14.07;;
58982;SDS011;44771;49.982;8.560;2022-12-24T18:51:12;21.98;;;12.70;;
58982;SDS011;44771;49.982;8.560;2022-12-24T18:56:17;24.40;;;12.02;;
58982;SDS011;44771;49.982;8.560;2022-12-24T19:06:36;23.20;;;11.75;;
58982;SDS011;44771;49.982;8.560;2022-12-24T19:17:08;24.37;;;11.73;;
58982;SDS011;44771;49.982;8.560;2022-12-24T19:22:09;21.27;;;11.55;;
58982;SDS011;44771;49.982;8.560;2022-12-24T19:27:15;17.25;;;11.45;;
58982;SDS011;44771;49.982;8.560;2022-12-24T19:32:16;15.68;;;11.40;;
58982;SDS011;44771;49.982;8.560;2022-12-24T19:37:21;27.62;;;14.77;;
58982;SDS011;44771;49.982;8.560;2022-12-24T19:42:25;20.25;;;13.55;;
58982;SDS011;44771;49.982;8.560;2022-12-24T19:47:26;16.92;;;13.27;;
58982;SDS011;44771;49.982;8.560;2022-12-24T19:52:31;20.37;;;13.07;;
58982;SDS011;44771;49.982;8.560;2022-12-24T20:03:13;37.05;;;19.42;;
58982;SDS011;44771;49.982;8.560;2022-12-24T20:08:16;44.80;;;19.30;;
58982;SDS011;44771;49.982;8.560;2022-12-24T20:13:19;35.85;;;17.67;;
58982;SDS011;44771;49.982;8.560;2022-12-24T20:18:22;37.58;;;16.85;;
58982;SDS011;44771;49.982;8.560;2022-12-24T20:23:24;35.97;;;16.75;;
58982;SDS011;44771;49.982;8.560;2022-12-24T20:28:27;42.22;;;16.17;;
58982;SDS011;44771;49.982;8.560;2022-12-24T20:33:32;30.73;;;15.23;;
58982;SDS011;44771;49.982;8.560;2022-12-24T20:38:34;39.33;;;15.52;;
58982;SDS011;44771;49.982;8.560;2022-12-24T20:43:36;37.78;;;14.90;;
58982;SDS011;44771;49.982;8.560;2022-12-24T20:54:18;31.98;;;14.73;;
58982;SDS011;44771;49.982;8.560;2022-12-24T20:59:26;32.90;;;15.38;;
58982;SDS011;44771;49.982;8.560;2022-12-24T21:04:28;32.08;;;15.80;;
58982;SDS011;44771;49.982;8.560;2022-12-24T21:09:35;38.25;;;15.25;;
58982;SDS011;44771;49.982;8.560;2022-12-24T21:14:51;27.42;;;15.63;;
58982;SDS011;44771;49.982;8.560;2022-12-24T21:19:53;34.53;;;15.65;;
58982;SDS011;44771;49.982;8.560;2022-12-24T21:25:00;36.85;;;15.30;;
58982;SDS011;44771;49.982;8.560;2022-12-24T21:30:05;24.27;;;14.27;;
58982;SDS011;44771;49.982;8.560;2022-12-24T21:35:08;30.17;;;13.88;;
58982;SDS011;44771;49.982;8.560;2022-12-24T21:40:13;34.72;;;15.30;;
58982;SDS011;44771;49.982;8.560;2022-12-24T21:45:14;35.45;;;15.25;;
58982;SDS011;44771;49.982;8.560;2022-12-24T21:50:16;28.92;;;14.23;;
58982;SDS011;44771;49.982;8.560;2022-12-24T21:55:22;35.40;;;13.80;;
58982;SDS011;44771;49.982;8.560;2022-12-24T22:00:25;35.10;;;15.00;;
58982;SDS011;44771;49.982;8.560;2022-12-24T22:05:27;50.10;;;15.70;;
58982;SDS011;44771;49.982;8.560;2022-12-24T22:10:33;35.40;;;13.90;;
58982;SDS011;44771;49.982;8.560;2022-12-24T22:15:42;29.67;;;14.52;;
58982;SDS011;44771;49.982;8.560;2022-12-24T22:20:46;31.47;;;14.27;;
58982;SDS011;44771;49.982;8.560;2022-12-24T22:25:49;35.83;;;15.32;;
58982;SDS011;44771;49.982;8.560;2022-12-24T22:30:51;22.52;;;13.52;;
58982;SDS011;44771;49.982;8.560;2022-12-24T22:35:53;24.27;;;13.60;;
58982;SDS011;44771;49.982;8.560;2022-12-24T22:40:56;29.52;;;14.70;;
58982;SDS011;44771;49.982;8.560;2022-12-24T22:45:58;25.85;;;13.98;;
58982;SDS011;44771;49.982;8.560;2022-12-24T22:51:03;27.45;;;14.68;;
58982;SDS011;44771;49.982;8.560;2022-12-24T22:56:07;31.00;;;14.57;;
58982;SDS011;44771;49.982;8.560;2022-12-24T23:01:11;33.90;;;15.75;;
58982;SDS011;44771;49.982;8.560;2022-12-24T23:06:13;31.00;;;15.38;;
58982;SDS011;44771;49.982;8.560;2022-12-24T23:11:16;42.08;;;16.23;;
58982;SDS011;44771;49.982;8.560;2022-12-24T23:16:18;31.87;;;16.25;;
58982;SDS011;44771;49.982;8.560;2022-12-24T23:21:20;34.00;;;15.57;;
58982;SDS011;44771;49.982;8.560;2022-12-24T23:26:24;32.97;;;14.60;;
58982;SDS011;44771;49.982;8.560;2022-12-24T23:31:29;37.95;;;14.60;;
58982;SDS011;44771;49.982;8.560;2022-12-24T23:37:09;30.62;;;14.87;;
58982;SDS011;44771;49.982;8.560;2022-12-24T23:47:36;37.67;;;15.30;;
58982;SDS011;44771;49.982;8.560;2022-12-24T23:52:58;33.80;;;15.35;;
58982;SDS011;44771;49.982;8.560;2022-12-24T23:58:01;28.02;;;14.10;;
